sensor_id;sensor_type;location;lat;lon;timestamp;pressure;altitude;pressure_sealevel;temperature;humidity
49178;BME280;35016;55.674;37.468;2023-03-01T00:00:44;98190.91;;;-4.89;65.87
49178;BME280;35016;55.674;37.468;2023-03-01T00:03:13;98195.56;;;-4.91;66.03
49178;BME280;35016;55.674;37.468;2023-03-01T00:05:46;98205.50;;;-4.93;66.27
49178;BME280;35016;55.674;37.468;2023-03-01T00:08:13;98189.81;;;-4.94;66.57
49178;BME280;35016;55.674;37.468;2023-03-01T00:10:40;98198.97;;;-4.97;66.15
49178;BME280;35016;55.674;37.468;2023-03-01T00:13:07;98204.44;;;-4.99;66.36
49178;BME280;35016;55.674;37.468;2023-03-01T00:15:37;98194.06;;;-5.00;66.37
49178;BME280;35016;55.674;37.468;2023-03-01T00:18:04;98198.09;;;-5.04;66.28
49178;BME280;35016;55.674;37.468;2023-03-01T00:20:31;98197.47;;;-5.06;66.62
49178;BME280;35016;55.674;37.468;2023-03-01T00:22:58;98193.41;;;-5.09;66.46
49178;BME280;35016;55.674;37.468;2023-03-01T00:25:25;98188.09;;;-5.09;66.89
49178;BME280;35016;55.674;37.468;2023-03-01T00:27:52;98194.59;;;-5.11;66.50
49178;BME280;35016;55.674;37.468;2023-03-01T00:30:19;98189.50;;;-5.13;66.25
49178;BME280;35016;55.674;37.468;2023-03-01T00:32:49;98186.03;;;-5.13;65.83
49178;BME280;35016;55.674;37.468;2023-03-01T00:35:16;98192.34;;;-5.14;66.04
49178;BME280;35016;55.674;37.468;2023-03-01T00:37:43;98190.72;;;-5.15;65.82
49178;BME280;35016;55.674;37.468;2023-03-01T00:40:10;98189.88;;;-5.16;66.04
49178;BME280;35016;55.674;37.468;2023-03-01T00:42:38;98198.81;;;-5.17;65.88
49178;BME280;35016;55.674;37.468;2023-03-01T00:45:05;98183.16;;;-5.18;66.07
49178;BME280;35016;55.674;37.468;2023-03-01T00:47:32;98183.34;;;-5.20;66.34
49178;BME280;35016;55.674;37.468;2023-03-01T00:49:59;98185.34;;;-5.22;66.63
49178;BME280;35016;55.674;37.468;2023-03-01T00:52:26;98198.56;;;-5.22;66.57
49178;BME280;35016;55.674;37.468;2023-03-01T00:54:53;98188.19;;;-5.23;66.14
49178;BME280;35016;55.674;37.468;2023-03-01T00:57:20;98172.72;;;-5.26;65.87
49178;BME280;35016;55.674;37.468;2023-03-01T00:59:47;98174.72;;;-5.28;65.81
49178;BME280;35016;55.674;37.468;2023-03-01T01:02:13;98177.56;;;-5.30;65.48
49178;BME280;35016;55.674;37.468;2023-03-01T01:04:40;98184.88;;;-5.32;65.08
49178;BME280;35016;55.674;37.468;2023-03-01T01:07:07;98188.50;;;-5.33;65.83
49178;BME280;35016;55.674;37.468;2023-03-01T01:09:34;98165.75;;;-5.34;66.10
49178;BME280;35016;55.674;37.468;2023-03-01T01:12:01;98169.59;;;-5.37;65.57
49178;BME280;35016;55.674;37.468;2023-03-01T01:14:28;98166.13;;;-5.37;66.40
49178;BME280;35016;55.674;37.468;2023-03-01T01:16:55;98177.91;;;-5.40;65.76
49178;BME280;35016;55.674;37.468;2023-03-01T01:19:22;98171.00;;;-5.41;65.72
49178;BME280;35016;55.674;37.468;2023-03-01T01:21:49;98174.81;;;-5.43;65.53
49178;BME280;35016;55.674;37.468;2023-03-01T01:24:18;98175.84;;;-5.44;65.09
49178;BME280;35016;55.674;37.468;2023-03-01T01:26:45;98175.84;;;-5.44;65.92
49178;BME280;35016;55.674;37.468;2023-03-01T01:29:12;98166.47;;;-5.47;65.94
49178;BME280;35016;55.674;37.468;2023-03-01T01:31:40;98177.22;;;-5.48;66.11
49178;BME280;35016;55.674;37.468;2023-03-01T01:34:07;98180.22;;;-5.51;66.51
49178;BME280;35016;55.674;37.468;2023-03-01T01:36:34;98181.22;;;-5.52;66.24
49178;BME280;35016;55.674;37.468;2023-03-01T01:39:02;98184.88;;;-5.53;66.25
49178;BME280;35016;55.674;37.468;2023-03-01T01:41:29;98189.72;;;-5.57;66.24
49178;BME280;35016;55.674;37.468;2023-03-01T01:44:11;98182.00;;;-5.58;66.37
49178;BME280;35016;55.674;37.468;2023-03-01T01:46:39;98188.28;;;-5.59;66.37
49178;BME280;35016;55.674;37.468;2023-03-01T01:49:27;98181.75;;;-5.64;66.49
49178;BME280;35016;55.674;37.468;2023-03-01T01:51:57;98184.75;;;-5.67;66.35
49178;BME280;35016;55.674;37.468;2023-03-01T01:54:38;98180.69;;;-5.69;66.43
49178;BME280;35016;55.674;37.468;2023-03-01T01:57:11;98176.59;;;-5.72;66.37
49178;BME280;35016;55.674;37.468;2023-03-01T01:59:40;98184.72;;;-5.73;66.13
49178;BME280;35016;55.674;37.468;2023-03-01T02:02:09;98184.91;;;-5.75;66.49
49178;BME280;35016;55.674;37.468;2023-03-01T02:04:36;98191.19;;;-5.76;66.01
49178;BME280;35016;55.674;37.468;2023-03-01T02:07:05;98189.72;;;-5.78;65.85
49178;BME280;35016;55.674;37.468;2023-03-01T02:09:33;98190.72;;;-5.79;65.70
49178;BME280;35016;55.674;37.468;2023-03-01T02:12:01;98179.53;;;-5.81;66.07
49178;BME280;35016;55.674;37.468;2023-03-01T02:14:28;98181.53;;;-5.83;66.55
49178;BME280;35016;55.674;37.468;2023-03-01T02:16:55;98194.91;;;-5.85;66.30
49178;BME280;35016;55.674;37.468;2023-03-01T02:19:31;98171.34;;;-5.86;66.26
49178;BME280;35016;55.674;37.468;2023-03-01T02:22:22;98168.09;;;-5.88;65.83
49178;BME280;35016;55.674;37.468;2023-03-01T02:25:06;98169.31;;;-5.91;65.47
49178;BME280;35016;55.674;37.468;2023-03-01T02:27:47;98183.53;;;-5.92;65.89
49178;BME280;35016;55.674;37.468;2023-03-01T02:30:16;98180.25;;;-5.94;65.75
49178;BME280;35016;55.674;37.468;2023-03-01T02:32:43;98202.56;;;-5.97;66.12
49178;BME280;35016;55.674;37.468;2023-03-01T02:35:12;98186.72;;;-5.97;66.10
49178;BME280;35016;55.674;37.468;2023-03-01T02:37:40;98195.19;;;-6.01;66.09
49178;BME280;35016;55.674;37.468;2023-03-01T02:40:08;98185.03;;;-6.04;66.09
49178;BME280;35016;55.674;37.468;2023-03-01T02:42:45;98188.00;;;-6.07;65.58
49178;BME280;35016;55.674;37.468;2023-03-01T02:45:13;98189.81;;;-6.08;65.64
49178;BME280;35016;55.674;37.468;2023-03-01T02:47:41;98199.75;;;-6.10;65.55
49178;BME280;35016;55.674;37.468;2023-03-01T02:52:57;98199.13;;;-6.12;65.81
49178;BME280;35016;55.674;37.468;2023-03-01T02:55:28;98186.13;;;-6.13;66.20
49178;BME280;35016;55.674;37.468;2023-03-01T02:57:56;98187.94;;;-6.14;66.41
49178;BME280;35016;55.674;37.468;2023-03-01T03:00:26;98210.22;;;-6.16;66.43
49178;BME280;35016;55.674;37.468;2023-03-01T03:02:54;98193.13;;;-6.20;66.02
49178;BME280;35016;55.674;37.468;2023-03-01T03:05:25;98213.44;;;-6.21;66.20
49178;BME280;35016;55.674;37.468;2023-03-01T03:07:55;98200.63;;;-6.24;66.35
49178;BME280;35016;55.674;37.468;2023-03-01T03:10:26;98193.06;;;-6.27;66.14
49178;BME280;35016;55.674;37.468;2023-03-01T03:12:57;98199.34;;;-6.28;66.15
49178;BME280;35016;55.674;37.468;2023-03-01T03:15:25;98212.72;;;-6.30;66.37
49178;BME280;35016;55.674;37.468;2023-03-01T03:17:52;98207.44;;;-6.30;66.40
49178;BME280;35016;55.674;37.468;2023-03-01T03:20:20;98228.09;;;-6.33;66.20
49178;BME280;35016;55.674;37.468;2023-03-01T03:22:49;98215.91;;;-6.34;66.17
49178;BME280;35016;55.674;37.468;2023-03-01T03:25:16;98203.88;;;-6.37;66.40
49178;BME280;35016;55.674;37.468;2023-03-01T03:27:44;98223.53;;;-6.39;66.47
49178;BME280;35016;55.674;37.468;2023-03-01T03:30:13;98201.81;;;-6.41;66.47
49178;BME280;35016;55.674;37.468;2023-03-01T03:32:41;98206.44;;;-6.43;66.50
49178;BME280;35016;55.674;37.468;2023-03-01T03:35:09;98210.25;;;-6.46;66.62
49178;BME280;35016;55.674;37.468;2023-03-01T03:37:36;98221.81;;;-6.47;66.29
49178;BME280;35016;55.674;37.468;2023-03-01T03:40:22;98231.72;;;-6.49;66.21
49178;BME280;35016;55.674;37.468;2023-03-01T03:42:51;98222.38;;;-6.51;66.61
49178;BME280;35016;55.674;37.468;2023-03-01T03:45:18;98223.38;;;-6.52;66.58
49178;BME280;35016;55.674;37.468;2023-03-01T03:47:45;98213.00;;;-6.54;66.11
49178;BME280;35016;55.674;37.468;2023-03-01T03:50:12;98219.28;;;-6.55;66.55
49178;BME280;35016;55.674;37.468;2023-03-01T03:52:40;98226.38;;;-6.56;66.26
49178;BME280;35016;55.674;37.468;2023-03-01T03:55:07;98212.56;;;-6.58;66.52
49178;BME280;35016;55.674;37.468;2023-03-01T03:57:38;98216.19;;;-6.59;66.77
49178;BME280;35016;55.674;37.468;2023-03-01T04:00:06;98217.00;;;-6.58;66.63
49178;BME280;35016;55.674;37.468;2023-03-01T04:02:41;98207.66;;;-6.61;66.26
49178;BME280;35016;55.674;37.468;2023-03-01T04:05:09;98219.00;;;-6.60;66.29
49178;BME280;35016;55.674;37.468;2023-03-01T04:07:36;98213.75;;;-6.60;66.62
49178;BME280;35016;55.674;37.468;2023-03-01T04:10:05;98210.47;;;-6.62;66.56
49178;BME280;35016;55.674;37.468;2023-03-01T04:12:34;98231.56;;;-6.62;66.86
49178;BME280;35016;55.674;37.468;2023-03-01T04:15:04;98223.66;;;-6.62;67.02
49178;BME280;35016;55.674;37.468;2023-03-01T04:17:42;98226.28;;;-6.62;66.64
49178;BME280;35016;55.674;37.468;2023-03-01T04:20:09;98228.91;;;-6.62;66.69
49178;BME280;35016;55.674;37.468;2023-03-01T04:22:40;98222.00;;;-6.63;66.65
49178;BME280;35016;55.674;37.468;2023-03-01T04:25:07;98225.28;;;-6.61;66.91
49178;BME280;35016;55.674;37.468;2023-03-01T04:27:34;98246.38;;;-6.61;66.60
49178;BME280;35016;55.674;37.468;2023-03-01T04:30:03;98242.75;;;-6.60;66.66
49178;BME280;35016;55.674;37.468;2023-03-01T04:32:30;98229.56;;;-6.60;66.56
49178;BME280;35016;55.674;37.468;2023-03-01T04:34:57;98240.09;;;-6.60;67.03
49178;BME280;35016;55.674;37.468;2023-03-01T04:37:24;98254.91;;;-6.59;66.45
49178;BME280;35016;55.674;37.468;2023-03-01T04:39:51;98241.56;;;-6.58;66.31
49178;BME280;35016;55.674;37.468;2023-03-01T04:42:18;98248.28;;;-6.55;66.72
49178;BME280;35016;55.674;37.468;2023-03-01T04:44:46;98243.63;;;-6.53;66.57
49178;BME280;35016;55.674;37.468;2023-03-01T04:47:15;98255.44;;;-6.49;66.47
49178;BME280;35016;55.674;37.468;2023-03-01T04:50:11;98237.44;;;-6.45;66.66
49178;BME280;35016;55.674;37.468;2023-03-01T04:52:52;98252.09;;;-6.43;66.32
49178;BME280;35016;55.674;37.468;2023-03-01T05:02:06;98257.56;;;-6.30;66.97
49178;BME280;35016;55.674;37.468;2023-03-01T05:04:38;98258.38;;;-6.29;66.62
49178;BME280;35016;55.674;37.468;2023-03-01T05:11:23;98260.97;;;-6.14;66.68
49178;BME280;35016;55.674;37.468;2023-03-01T05:13:55;98263.69;;;-6.08;66.32
49178;BME280;35016;55.674;37.468;2023-03-01T05:16:27;98275.53;;;-6.04;66.73
49178;BME280;35016;55.674;37.468;2023-03-01T05:19:14;98254.50;;;-5.97;66.91
49178;BME280;35016;55.674;37.468;2023-03-01T05:21:51;98265.31;;;-5.92;66.93
49178;BME280;35016;55.674;37.468;2023-03-01T05:34:36;98283.41;;;-5.89;66.11
49178;BME280;35016;55.674;37.468;2023-03-01T05:38:54;98291.13;;;-5.87;66.52
49178;BME280;35016;55.674;37.468;2023-03-01T05:41:26;98281.84;;;-5.83;66.38
49178;BME280;35016;55.674;37.468;2023-03-01T05:44:06;98286.41;;;-5.77;66.49
49178;BME280;35016;55.674;37.468;2023-03-01T05:47:25;98298.66;;;-5.70;66.35
49178;BME280;35016;55.674;37.468;2023-03-01T05:50:18;98299.28;;;-5.68;66.69
49178;BME280;35016;55.674;37.468;2023-03-01T05:53:37;98292.44;;;-5.62;67.10
49178;BME280;35016;55.674;37.468;2023-03-01T05:56:29;98298.81;;;-5.56;66.94
49178;BME280;35016;55.674;37.468;2023-03-01T05:59:00;98299.69;;;-5.49;66.72
49178;BME280;35016;55.674;37.468;2023-03-01T06:01:49;98300.78;;;-5.44;66.43
49178;BME280;35016;55.674;37.468;2023-03-01T06:04:20;98298.03;;;-5.36;66.97
49178;BME280;35016;55.674;37.468;2023-03-01T06:06:49;98301.34;;;-5.27;66.67
49178;BME280;35016;55.674;37.468;2023-03-01T06:09:22;98295.97;;;-5.19;66.50
49178;BME280;35016;55.674;37.468;2023-03-01T06:11:50;98302.94;;;-5.11;66.37
49178;BME280;35016;55.674;37.468;2023-03-01T06:14:19;98297.53;;;-5.03;66.68
49178;BME280;35016;55.674;37.468;2023-03-01T06:16:52;98310.59;;;-4.95;66.97
49178;BME280;35016;55.674;37.468;2023-03-01T06:19:21;98312.69;;;-4.90;66.75
49178;BME280;35016;55.674;37.468;2023-03-01T06:22:00;98310.41;;;-4.93;66.68
49178;BME280;35016;55.674;37.468;2023-03-01T06:25:04;98324.28;;;-4.91;66.69
49178;BME280;35016;55.674;37.468;2023-03-01T06:27:46;98319.66;;;-4.83;67.22
49178;BME280;35016;55.674;37.468;2023-03-01T06:30:24;98319.53;;;-4.75;66.74
49178;BME280;35016;55.674;37.468;2023-03-01T06:33:02;98318.19;;;-4.64;66.57
49178;BME280;35016;55.674;37.468;2023-03-01T06:35:39;98320.94;;;-4.51;66.50
49178;BME280;35016;55.674;37.468;2023-03-01T06:38:15;98321.44;;;-4.34;66.18
49178;BME280;35016;55.674;37.468;2023-03-01T06:41:06;98319.91;;;-4.22;65.69
49178;BME280;35016;55.674;37.468;2023-03-01T06:43:43;98330.94;;;-4.18;66.08
49178;BME280;35016;55.674;37.468;2023-03-01T06:46:12;98313.44;;;-4.13;66.01
49178;BME280;35016;55.674;37.468;2023-03-01T06:48:39;98329.00;;;-4.03;65.88
49178;BME280;35016;55.674;37.468;2023-03-01T06:51:11;98317.44;;;-3.95;66.43
49178;BME280;35016;55.674;37.468;2023-03-01T06:53:39;98320.75;;;-3.80;65.99
49178;BME280;35016;55.674;37.468;2023-03-01T06:56:11;98319.81;;;-3.66;66.19
49178;BME280;35016;55.674;37.468;2023-03-01T06:59:08;98317.66;;;-3.42;66.30
49178;BME280;35016;55.674;37.468;2023-03-01T07:02:01;98326.66;;;-3.24;65.69
49178;BME280;35016;55.674;37.468;2023-03-01T07:04:43;98336.09;;;-3.15;65.06
49178;BME280;35016;55.674;37.468;2023-03-01T07:07:31;98322.63;;;-3.06;64.21
49178;BME280;35016;55.674;37.468;2023-03-01T07:09:58;98329.56;;;-3.05;65.05
49178;BME280;35016;55.674;37.468;2023-03-01T07:12:29;98325.69;;;-3.03;64.68
49178;BME280;35016;55.674;37.468;2023-03-01T07:18:48;98342.00;;;-3.06;64.23
49178;BME280;35016;55.674;37.468;2023-03-01T07:21:33;98351.81;;;-3.06;64.64
49178;BME280;35016;55.674;37.468;2023-03-01T07:24:45;98344.66;;;-3.13;64.92
49178;BME280;35016;55.674;37.468;2023-03-01T07:28:38;98349.75;;;-3.18;64.61
49178;BME280;35016;55.674;37.468;2023-03-01T07:31:28;98348.88;;;-3.25;65.21
49178;BME280;35016;55.674;37.468;2023-03-01T07:34:11;98347.66;;;-3.22;65.25
49178;BME280;35016;55.674;37.468;2023-03-01T07:36:42;98360.34;;;-3.18;65.07
49178;BME280;35016;55.674;37.468;2023-03-01T07:39:18;98356.28;;;-3.14;65.25
49178;BME280;35016;55.674;37.468;2023-03-01T07:42:01;98357.72;;;-3.04;64.75
49178;BME280;35016;55.674;37.468;2023-03-01T07:44:42;98369.16;;;-2.91;65.34
49178;BME280;35016;55.674;37.468;2023-03-01T07:47:23;98374.91;;;-2.81;65.03
49178;BME280;35016;55.674;37.468;2023-03-01T07:50:27;98376.13;;;-2.83;62.99
49178;BME280;35016;55.674;37.468;2023-03-01T07:52:59;98373.44;;;-2.90;63.92
49178;BME280;35016;55.674;37.468;2023-03-01T07:55:29;98374.47;;;-2.91;65.12
49178;BME280;35016;55.674;37.468;2023-03-01T07:58:00;98399.19;;;-2.84;65.46
49178;BME280;35016;55.674;37.468;2023-03-01T08:00:27;98406.13;;;-2.83;64.75
49178;BME280;35016;55.674;37.468;2023-03-01T08:03:01;98370.63;;;-2.88;64.90
49178;BME280;35016;55.674;37.468;2023-03-01T08:05:43;98391.41;;;-2.92;64.76
49178;BME280;35016;55.674;37.468;2023-03-01T08:08:14;98372.63;;;-2.90;64.11
49178;BME280;35016;55.674;37.468;2023-03-01T08:10:45;98369.97;;;-2.90;64.93
49178;BME280;35016;55.674;37.468;2023-03-01T08:13:17;98371.00;;;-2.91;64.37
49178;BME280;35016;55.674;37.468;2023-03-01T08:16:01;98371.44;;;-2.88;64.29
49178;BME280;35016;55.674;37.468;2023-03-01T08:19:07;98376.31;;;-2.91;65.07
49178;BME280;35016;55.674;37.468;2023-03-01T08:21:55;98385.47;;;-3.00;64.29
49178;BME280;35016;55.674;37.468;2023-03-01T08:24:40;98404.63;;;-3.05;62.66
49178;BME280;35016;55.674;37.468;2023-03-01T08:27:21;98401.19;;;-2.99;64.17
49178;BME280;35016;55.674;37.468;2023-03-01T08:29:59;98383.03;;;-2.95;63.80
49178;BME280;35016;55.674;37.468;2023-03-01T08:32:29;98395.31;;;-2.88;64.08
49178;BME280;35016;55.674;37.468;2023-03-01T08:35:02;98383.06;;;-2.82;63.20
49178;BME280;35016;55.674;37.468;2023-03-01T08:37:37;98391.03;;;-2.82;63.73
49178;BME280;35016;55.674;37.468;2023-03-01T08:40:13;98379.56;;;-2.89;64.20
49178;BME280;35016;55.674;37.468;2023-03-01T08:42:45;98385.72;;;-2.89;64.06
49178;BME280;35016;55.674;37.468;2023-03-01T08:45:15;98376.34;;;-2.85;63.59
49178;BME280;35016;55.674;37.468;2023-03-01T08:47:47;98383.88;;;-2.82;63.06
49178;BME280;35016;55.674;37.468;2023-03-01T08:50:25;98415.72;;;-2.75;62.01
49178;BME280;35016;55.674;37.468;2023-03-01T08:52:57;98412.06;;;-2.74;62.46
49178;BME280;35016;55.674;37.468;2023-03-01T08:55:27;98382.66;;;-2.72;62.43
49178;BME280;35016;55.674;37.468;2023-03-01T08:57:57;98399.22;;;-2.64;63.53
49178;BME280;35016;55.674;37.468;2023-03-01T09:00:28;98391.47;;;-2.52;63.38
49178;BME280;35016;55.674;37.468;2023-03-01T09:02:57;98403.13;;;-2.40;63.72
49178;BME280;35016;55.674;37.468;2023-03-01T09:05:24;98401.28;;;-2.33;63.83
49178;BME280;35016;55.674;37.468;2023-03-01T09:07:54;98393.34;;;-2.26;64.20
49178;BME280;35016;55.674;37.468;2023-03-01T09:10:22;98411.91;;;-2.13;63.56
49178;BME280;35016;55.674;37.468;2023-03-01T09:12:50;98399.88;;;-2.02;62.99
49178;BME280;35016;55.674;37.468;2023-03-01T09:15:18;98404.75;;;-1.93;62.69
49178;BME280;35016;55.674;37.468;2023-03-01T09:17:45;98424.34;;;-1.80;62.88
49178;BME280;35016;55.674;37.468;2023-03-01T09:20:14;98407.38;;;-1.66;63.01
49178;BME280;35016;55.674;37.468;2023-03-01T09:22:43;98389.09;;;-1.49;62.98
49178;BME280;35016;55.674;37.468;2023-03-01T09:25:16;98408.50;;;-1.36;63.18
49178;BME280;35016;55.674;37.468;2023-03-01T09:27:43;98404.44;;;-1.38;62.74
49178;BME280;35016;55.674;37.468;2023-03-01T09:30:11;98401.59;;;-1.43;62.06
49178;BME280;35016;55.674;37.468;2023-03-01T09:32:39;98396.44;;;-1.45;61.85
49178;BME280;35016;55.674;37.468;2023-03-01T09:35:09;98402.00;;;-1.53;59.36
49178;BME280;35016;55.674;37.468;2023-03-01T09:37:37;98448.44;;;-1.56;60.86
49178;BME280;35016;55.674;37.468;2023-03-01T09:40:08;98416.13;;;-1.52;62.09
49178;BME280;35016;55.674;37.468;2023-03-01T09:42:48;98414.50;;;-1.60;62.37
49178;BME280;35016;55.674;37.468;2023-03-01T09:45:26;98407.16;;;-1.65;62.67
49178;BME280;35016;55.674;37.468;2023-03-01T09:47:54;98422.09;;;-1.64;62.70
49178;BME280;35016;55.674;37.468;2023-03-01T09:50:22;98418.59;;;-1.64;61.97
49178;BME280;35016;55.674;37.468;2023-03-01T09:56:02;98412.03;;;-1.55;60.62
49178;BME280;35016;55.674;37.468;2023-03-01T10:01:29;98432.50;;;-1.62;61.66
49178;BME280;35016;55.674;37.468;2023-03-01T10:04:11;98444.53;;;-1.53;62.04
49178;BME280;35016;55.674;37.468;2023-03-01T10:06:41;98416.06;;;-1.33;62.27
49178;BME280;35016;55.674;37.468;2023-03-01T10:09:14;98410.25;;;-1.10;62.22
49178;BME280;35016;55.674;37.468;2023-03-01T10:17:03;98443.50;;;-0.87;62.18
49178;BME280;35016;55.674;37.468;2023-03-01T10:19:42;98441.25;;;-0.84;61.01
49178;BME280;35016;55.674;37.468;2023-03-01T10:24:37;98430.47;;;-0.57;62.09
49178;BME280;35016;55.674;37.468;2023-03-01T10:27:09;98442.91;;;-0.51;62.00
49178;BME280;35016;55.674;37.468;2023-03-01T10:29:42;98444.16;;;-0.54;61.52
49178;BME280;35016;55.674;37.468;2023-03-01T10:32:12;98464.47;;;-0.66;61.77
49178;BME280;35016;55.674;37.468;2023-03-01T10:34:40;98445.53;;;-0.83;62.02
49178;BME280;35016;55.674;37.468;2023-03-01T10:39:35;98458.94;;;-1.16;62.52
49178;BME280;35016;55.674;37.468;2023-03-01T10:42:03;98475.53;;;-1.20;61.74
49178;BME280;35016;55.674;37.468;2023-03-01T10:44:41;98426.47;;;-1.25;62.52
49178;BME280;35016;55.674;37.468;2023-03-01T10:47:22;98425.22;;;-1.22;62.61
49178;BME280;35016;55.674;37.468;2023-03-01T10:50:01;98426.81;;;-1.08;62.76
49178;BME280;35016;55.674;37.468;2023-03-01T10:52:40;98451.09;;;-0.91;62.23
49178;BME280;35016;55.674;37.468;2023-03-01T10:55:33;98442.25;;;-0.78;61.20
49178;BME280;35016;55.674;37.468;2023-03-01T10:58:21;98439.38;;;-0.77;60.11
49178;BME280;35016;55.674;37.468;2023-03-01T11:00:59;98428.94;;;-0.78;60.48
49178;BME280;35016;55.674;37.468;2023-03-01T11:03:31;98437.53;;;-0.76;61.97
49178;BME280;35016;55.674;37.468;2023-03-01T11:06:00;98470.66;;;-0.72;61.62
49178;BME280;35016;55.674;37.468;2023-03-01T11:08:35;98432.38;;;-0.71;62.07
49178;BME280;35016;55.674;37.468;2023-03-01T11:13:49;98459.06;;;-0.84;60.92
49178;BME280;35016;55.674;37.468;2023-03-01T11:16:18;98434.34;;;-0.98;60.49
49178;BME280;35016;55.674;37.468;2023-03-01T11:19:00;98421.72;;;-1.09;61.74
49178;BME280;35016;55.674;37.468;2023-03-01T11:21:31;98422.09;;;-1.06;62.35
49178;BME280;35016;55.674;37.468;2023-03-01T11:24:00;98463.84;;;-1.06;61.51
49178;BME280;35016;55.674;37.468;2023-03-01T11:26:28;98438.31;;;-1.14;60.63
49178;BME280;35016;55.674;37.468;2023-03-01T11:28:58;98432.00;;;-1.26;61.22
49178;BME280;35016;55.674;37.468;2023-03-01T11:31:27;98421.59;;;-1.34;61.23
49178;BME280;35016;55.674;37.468;2023-03-01T11:36:53;98431.38;;;-1.28;59.93
49178;BME280;35016;55.674;37.468;2023-03-01T11:39:24;98435.84;;;-1.15;57.18
49178;BME280;35016;55.674;37.468;2023-03-01T11:42:00;98449.53;;;-1.05;59.32
49178;BME280;35016;55.674;37.468;2023-03-01T11:44:43;98483.50;;;-1.07;60.38
49178;BME280;35016;55.674;37.468;2023-03-01T11:52:30;98449.22;;;-1.42;60.71
49178;BME280;35016;55.674;37.468;2023-03-01T12:05:34;98455.25;;;-1.08;60.06
49178;BME280;35016;55.674;37.468;2023-03-01T12:13:23;98461.34;;;-0.95;60.41
49178;BME280;35016;55.674;37.468;2023-03-01T12:29:09;98458.78;;;-0.70;59.47
49178;BME280;35016;55.674;37.468;2023-03-01T12:37:32;98461.38;;;-1.01;60.49
49178;BME280;35016;55.674;37.468;2023-03-01T12:40:27;98479.22;;;-1.08;59.53
49178;BME280;35016;55.674;37.468;2023-03-01T12:43:04;98473.69;;;-1.07;60.51
49178;BME280;35016;55.674;37.468;2023-03-01T12:48:47;98462.22;;;-1.07;59.19
49178;BME280;35016;55.674;37.468;2023-03-01T12:51:29;98464.47;;;-1.11;59.70
49178;BME280;35016;55.674;37.468;2023-03-01T12:53:59;98457.97;;;-1.15;60.05
49178;BME280;35016;55.674;37.468;2023-03-01T12:56:36;98444.66;;;-1.21;60.11
49178;BME280;35016;55.674;37.468;2023-03-01T13:14:34;98462.75;;;-1.43;59.17
49178;BME280;35016;55.674;37.468;2023-03-01T13:17:56;98466.59;;;-1.46;59.07
49178;BME280;35016;55.674;37.468;2023-03-01T13:21:13;98491.78;;;-1.55;58.60
49178;BME280;35016;55.674;37.468;2023-03-01T13:24:25;98476.06;;;-1.70;59.23
49178;BME280;35016;55.674;37.468;2023-03-01T13:34:06;98456.47;;;-2.02;58.12
49178;BME280;35016;55.674;37.468;2023-03-01T13:37:25;98449.28;;;-2.08;59.09
49178;BME280;35016;55.674;37.468;2023-03-01T13:41:01;98441.94;;;-2.06;58.50
49178;BME280;35016;55.674;37.468;2023-03-01T13:43:50;98470.13;;;-2.05;59.65
49178;BME280;35016;55.674;37.468;2023-03-01T13:47:25;98465.63;;;-2.11;59.74
49178;BME280;35016;55.674;37.468;2023-03-01T13:49:59;98460.13;;;-2.16;58.31
49178;BME280;35016;55.674;37.468;2023-03-01T13:57:46;98434.75;;;-2.32;59.17
49178;BME280;35016;55.674;37.468;2023-03-01T14:00:31;98444.78;;;-2.34;60.23
49178;BME280;35016;55.674;37.468;2023-03-01T14:03:12;98429.25;;;-2.37;59.78
49178;BME280;35016;55.674;37.468;2023-03-01T14:05:42;98423.34;;;-2.39;60.10
49178;BME280;35016;55.674;37.468;2023-03-01T14:15:06;98432.72;;;-2.43;60.57
49178;BME280;35016;55.674;37.468;2023-03-01T14:20:30;98413.72;;;-2.46;58.92
49178;BME280;35016;55.674;37.468;2023-03-01T14:25:57;98429.44;;;-2.52;59.23
49178;BME280;35016;55.674;37.468;2023-03-01T14:28:27;98409.66;;;-2.56;59.09
49178;BME280;35016;55.674;37.468;2023-03-01T14:30:59;98408.03;;;-2.57;59.76
49178;BME280;35016;55.674;37.468;2023-03-01T14:33:36;98401.91;;;-2.57;60.62
49178;BME280;35016;55.674;37.468;2023-03-01T14:36:09;98406.38;;;-2.58;60.27
49178;BME280;35016;55.674;37.468;2023-03-01T14:38:43;98402.72;;;-2.57;60.13
49178;BME280;35016;55.674;37.468;2023-03-01T14:41:18;98392.09;;;-2.57;60.42
49178;BME280;35016;55.674;37.468;2023-03-01T14:43:52;98402.09;;;-2.59;59.37
49178;BME280;35016;55.674;37.468;2023-03-01T14:49:31;98390.63;;;-2.66;60.42
49178;BME280;35016;55.674;37.468;2023-03-01T14:52:32;98394.31;;;-2.67;60.97
49178;BME280;35016;55.674;37.468;2023-03-01T14:55:19;98401.66;;;-2.69;59.83
49178;BME280;35016;55.674;37.468;2023-03-01T14:57:59;98410.63;;;-2.70;60.31
49178;BME280;35016;55.674;37.468;2023-03-01T15:01:17;98390.00;;;-2.74;60.67
49178;BME280;35016;55.674;37.468;2023-03-01T15:04:12;98393.28;;;-2.79;60.60
49178;BME280;35016;55.674;37.468;2023-03-01T15:06:44;98402.47;;;-2.82;60.78
49178;BME280;35016;55.674;37.468;2023-03-01T15:09:29;98410.63;;;-2.83;61.11
49178;BME280;35016;55.674;37.468;2023-03-01T15:12:00;98397.75;;;-2.86;60.90
49178;BME280;35016;55.674;37.468;2023-03-01T15:17:51;98387.50;;;-2.96;60.97
49178;BME280;35016;55.674;37.468;2023-03-01T15:20:34;98393.03;;;-2.97;60.86
49178;BME280;35016;55.674;37.468;2023-03-01T15:23:32;98390.56;;;-2.99;61.12
49178;BME280;35016;55.674;37.468;2023-03-01T15:26:21;98389.16;;;-2.95;61.51
49178;BME280;35016;55.674;37.468;2023-03-01T15:29:02;98416.69;;;-2.96;61.11
49178;BME280;35016;55.674;37.468;2023-03-01T15:31:56;98394.66;;;-2.96;61.39
49178;BME280;35016;55.674;37.468;2023-03-01T15:34:39;98386.50;;;-2.95;61.06
49178;BME280;35016;55.674;37.468;2023-03-01T15:37:49;98391.19;;;-2.97;61.47
49178;BME280;35016;55.674;37.468;2023-03-01T15:40:59;98394.66;;;-2.96;61.49
49178;BME280;35016;55.674;37.468;2023-03-01T15:43:43;98398.13;;;-2.96;61.22
49178;BME280;35016;55.674;37.468;2023-03-01T15:49:02;98390.16;;;-2.96;61.04
49178;BME280;35016;55.674;37.468;2023-03-01T15:52:04;98398.75;;;-2.94;61.30
49178;BME280;35016;55.674;37.468;2023-03-01T15:54:35;98391.59;;;-2.93;61.33
49178;BME280;35016;55.674;37.468;2023-03-01T15:57:02;98400.38;;;-2.93;61.58